createdAt,value
2018-06-27T00:00:04.293Z,13.25
2018-06-27T00:01:03.807Z,13.312
2018-06-27T00:02:03.278Z,13.187
2018-06-27T00:03:03.815Z,13.125
2018-06-27T00:04:03.464Z,13.062
2018-06-27T00:05:03.821Z,13
2018-06-27T00:06:04.173Z,12.875
2018-06-27T00:07:03.599Z,12.937
2018-06-27T00:08:04.015Z,12.875
2018-06-27T00:09:03.749Z,12.812
2018-06-27T00:10:04.181Z,12.75
2018-06-27T00:11:03.695Z,12.75
2018-06-27T00:12:04.042Z,12.812
2018-06-27T00:13:03.493Z,12.75
2018-06-27T00:14:03.947Z,12.75
2018-06-27T00:15:03.434Z,12.687
2018-06-27T00:16:04.030Z,12.625
2018-06-27T00:17:03.606Z,12.562
2018-06-27T00:18:04.098Z,12.562
2018-06-27T00:19:03.718Z,12.625
2018-06-27T00:20:04.183Z,12.687
2018-06-27T00:21:04.301Z,12.687
2018-06-27T00:22:03.357Z,12.75
2018-06-27T00:23:03.791Z,12.75
2018-06-27T00:24:04.036Z,12.812
2018-06-27T00:25:04.788Z,12.875
2018-06-27T00:26:03.801Z,12.812
2018-06-27T00:27:04.029Z,12.937
2018-06-27T00:28:03.524Z,12.875
2018-06-27T00:29:04.208Z,12.875
2018-06-27T00:30:03.943Z,12.812
2018-06-27T00:31:03.625Z,12.875
2018-06-27T00:32:04.196Z,12.812
2018-06-27T00:33:03.739Z,12.812
2018-06-27T00:34:04.022Z,12.75
2018-06-27T00:36:03.816Z,12.812
2018-06-27T00:37:04.193Z,12.812
2018-06-27T00:38:03.638Z,12.812
2018-06-27T00:39:04.283Z,12.75
2018-06-27T00:40:03.791Z,12.687
2018-06-27T00:41:04.243Z,12.625
2018-06-27T00:42:03.779Z,12.625
2018-06-27T00:43:04.232Z,12.625
2018-06-27T00:44:03.740Z,12.562
2018-06-27T00:45:04.074Z,12.625
2018-06-27T00:46:03.663Z,12.625
2018-06-27T00:47:04.198Z,12.562
2018-06-27T00:48:03.803Z,12.5
2018-06-27T00:50:03.856Z,12.562
2018-06-27T00:51:03.467Z,12.562
2018-06-27T00:52:03.881Z,12.562
2018-06-27T00:53:03.420Z,12.562
2018-06-27T00:54:03.946Z,12.5
2018-06-27T00:55:04.243Z,12.437
2018-06-27T00:56:03.396Z,12.437
2018-06-27T00:57:03.932Z,12.562
2018-06-27T00:58:04.041Z,12.562
2018-06-27T00:59:03.591Z,12.562
2018-06-27T01:00:03.741Z,12.562
2018-06-27T01:01:04.275Z,12.5
2018-06-27T01:02:03.650Z,12.5
2018-06-27T01:03:03.193Z,12.437
2018-06-27T01:04:03.587Z,12.437
2018-06-27T01:05:03.915Z,12.437
2018-06-27T01:06:03.394Z,12.437
2018-06-27T01:07:03.848Z,12.375
2018-06-27T01:08:03.943Z,12.375
2018-06-27T01:09:03.397Z,12.312
2018-06-27T01:10:04.119Z,12.25
2018-06-27T01:11:03.323Z,12.25
2018-06-27T01:12:04.009Z,12.187
2018-06-27T01:13:04.246Z,12.25
2018-06-27T01:14:03.716Z,12.25
2018-06-27T01:15:04.079Z,12.187
2018-06-27T01:16:03.648Z,12.125
2018-06-27T01:17:04.359Z,12.062
2018-06-27T01:18:03.838Z,11.937
2018-06-27T01:19:03.548Z,11.937
2018-06-27T01:20:03.799Z,11.812
2018-06-27T01:21:03.397Z,11.812
2018-06-27T01:22:03.800Z,11.687
2018-06-27T01:23:04.170Z,11.687
2018-06-27T01:24:03.623Z,11.75
2018-06-27T01:25:04.151Z,11.687
2018-06-27T01:26:04.221Z,11.687
2018-06-27T01:27:04.665Z,11.75
2018-06-27T01:28:03.913Z,11.812
2018-06-27T01:29:03.506Z,11.812
2018-06-27T01:30:04.270Z,11.75
2018-06-27T01:31:03.415Z,11.687
2018-06-27T01:32:04.180Z,11.687
2018-06-27T01:33:03.593Z,11.625
2018-06-27T01:34:04.178Z,11.625
2018-06-27T01:35:03.719Z,11.562
2018-06-27T01:36:03.914Z,11.562
2018-06-27T01:37:03.504Z,11.5
2018-06-27T01:38:04.060Z,11.562
2018-06-27T01:39:03.678Z,11.562
2018-06-27T01:40:04.090Z,11.625
2018-06-27T01:41:03.700Z,11.625
2018-06-27T01:42:04.104Z,11.625
2018-06-27T01:43:03.582Z,11.687
2018-06-27T01:44:03.953Z,11.625
2018-06-27T01:45:03.405Z,11.625
2018-06-27T01:46:03.591Z,11.687
2018-06-27T01:47:03.929Z,11.812
2018-06-27T01:48:03.358Z,11.875
2018-06-27T01:49:03.858Z,11.875
2018-06-27T01:50:03.332Z,11.875
2018-06-27T01:51:03.851Z,11.937
2018-06-27T01:52:04.211Z,11.937
2018-06-27T01:53:03.523Z,12
2018-06-27T01:54:04.196Z,12
2018-06-27T01:55:03.662Z,11.937
2018-06-27T01:56:04.059Z,11.875
2018-06-27T01:57:03.507Z,11.875
2018-06-27T01:58:04.128Z,11.812
2018-06-27T01:59:03.607Z,11.812
2018-06-27T02:00:04.110Z,11.812
2018-06-27T02:01:03.471Z,11.812
2018-06-27T02:02:03.955Z,11.937
2018-06-27T02:03:04.349Z,12
2018-06-27T02:04:03.736Z,11.937
2018-06-27T02:05:04.071Z,11.937
2018-06-27T02:06:03.346Z,12
2018-06-27T02:07:03.786Z,12
2018-06-27T02:08:04.244Z,12
2018-06-27T02:09:03.881Z,12
2018-06-27T02:10:04.090Z,12.062
2018-06-27T02:11:03.555Z,12.125
2018-06-27T02:12:03.981Z,12.125
2018-06-27T02:13:03.536Z,12.062
2018-06-27T02:14:04.057Z,12
2018-06-27T02:15:03.706Z,12
2018-06-27T02:16:03.952Z,12
2018-06-27T02:17:03.599Z,12
2018-06-27T02:18:04.039Z,12
2018-06-27T02:19:04.055Z,11.937
2018-06-27T02:20:04.383Z,11.937
2018-06-27T02:21:03.619Z,11.937
2018-06-27T02:22:04.088Z,11.937
2018-06-27T02:23:04.036Z,12.062
2018-06-27T02:24:03.362Z,12.062
2018-06-27T02:25:03.807Z,12
2018-06-27T02:26:04.329Z,12
2018-06-27T02:27:03.363Z,11.937
2018-06-27T02:28:03.826Z,11.937
2018-06-27T02:29:04.350Z,12
2018-06-27T02:30:03.740Z,12
2018-06-27T02:31:04.019Z,11.937
2018-06-27T02:32:03.485Z,11.937
2018-06-27T02:33:04.050Z,11.937
2018-06-27T02:34:04.088Z,11.937
2018-06-27T02:35:03.730Z,11.812
2018-06-27T02:36:03.754Z,11.75
2018-06-27T02:37:04.257Z,11.75
2018-06-27T02:38:03.905Z,11.75
2018-06-27T02:39:03.401Z,11.75
2018-06-27T02:40:03.791Z,11.75
2018-06-27T02:41:09.192Z,11.687
2018-06-27T02:42:03.961Z,11.687
2018-06-27T02:43:03.482Z,11.687
2018-06-27T02:44:03.809Z,11.625
2018-06-27T02:45:04.128Z,11.687
2018-06-27T02:46:03.553Z,11.812
2018-06-27T02:47:04.145Z,11.812
2018-06-27T02:48:03.579Z,11.75
2018-06-27T02:49:04.112Z,11.687
2018-06-27T02:50:04.166Z,11.75
2018-06-27T02:51:04.161Z,11.625
2018-06-27T02:52:03.459Z,11.562
2018-06-27T02:53:04.835Z,11.5
2018-06-27T02:54:03.996Z,11.5
2018-06-27T02:55:03.528Z,11.437
2018-06-27T02:56:04.096Z,11.5
2018-06-27T02:57:03.636Z,11.562
2018-06-27T02:58:04.112Z,11.625
2018-06-27T02:59:03.578Z,11.75
2018-06-27T03:00:03.986Z,11.812
2018-06-27T03:01:03.352Z,11.812
2018-06-27T03:02:04.078Z,11.812
2018-06-27T03:03:03.493Z,11.812
2018-06-27T03:04:04.004Z,11.937
2018-06-27T03:05:03.483Z,12.125
2018-06-27T03:06:03.844Z,12.375
2018-06-27T03:07:04.112Z,12.562
2018-06-27T03:08:03.695Z,12.812
2018-06-27T03:09:04.328Z,13
2018-06-27T03:10:04.066Z,13.25
2018-06-27T03:11:04.191Z,13.5
2018-06-27T03:12:03.619Z,13.812
2018-06-27T03:13:04.064Z,14.125
2018-06-27T03:14:03.568Z,14.5
2018-06-27T03:15:04.021Z,14.812
2018-06-27T03:16:03.351Z,15
2018-06-27T03:17:04.087Z,15.125
2018-06-27T03:18:04.243Z,15.25
2018-06-27T03:19:03.751Z,15.187
2018-06-27T03:20:03.967Z,15.187
2018-06-27T03:21:03.326Z,15.312
2018-06-27T03:22:03.796Z,15.437
2018-06-27T03:23:04.306Z,15.562
2018-06-27T03:24:03.686Z,15.5
2018-06-27T03:25:04.185Z,15.25
2018-06-27T03:26:03.778Z,14.812
2018-06-27T03:27:04.233Z,14.312
2018-06-27T03:28:03.719Z,14.062
2018-06-27T03:29:04.443Z,13.687
2018-06-27T03:30:03.853Z,13.437
2018-06-27T03:31:04.360Z,13.25
2018-06-27T03:32:03.877Z,13.062
2018-06-27T03:33:04.211Z,13
2018-06-27T03:34:03.764Z,12.937
2018-06-27T03:35:04.245Z,12.812
2018-06-27T03:36:03.647Z,12.75
2018-06-27T03:37:04.216Z,12.625
2018-06-27T03:38:04.122Z,12.562
2018-06-27T03:39:03.464Z,12.5
2018-06-27T03:40:04.157Z,12.437
2018-06-27T03:41:03.729Z,12.375
2018-06-27T03:42:04.121Z,12.375
2018-06-27T03:43:03.715Z,12.5
2018-06-27T03:44:03.428Z,12.687
2018-06-27T03:45:04.025Z,12.875
2018-06-27T03:46:03.335Z,13.062
2018-06-27T03:47:03.980Z,13.125
2018-06-27T03:48:04.169Z,13.125
2018-06-27T03:49:03.653Z,13.125
2018-06-27T03:50:04.247Z,13.312
2018-06-27T03:51:03.820Z,13.437
2018-06-27T03:52:03.521Z,13.437
2018-06-27T03:53:04.014Z,13.375
2018-06-27T03:54:03.556Z,13.25
2018-06-27T03:55:04.013Z,13.125
2018-06-27T03:56:03.477Z,13.062
2018-06-27T03:57:03.952Z,13.062
2018-06-27T03:58:03.494Z,13.062
2018-06-27T03:59:03.660Z,13
2018-06-27T04:00:04.085Z,12.937
2018-06-27T04:01:03.473Z,12.937
2018-06-27T04:02:04.027Z,13.062
2018-06-27T04:03:03.664Z,13.125
2018-06-27T04:04:04.598Z,13.25
2018-06-27T04:05:03.708Z,13.187
2018-06-27T04:06:04.257Z,13.062
2018-06-27T04:07:03.868Z,13.062
2018-06-27T04:08:04.212Z,12.937
2018-06-27T04:09:03.841Z,12.875
2018-06-27T04:10:04.190Z,12.875
2018-06-27T04:11:03.565Z,12.812
2018-06-27T04:12:04.188Z,12.75
2018-06-27T04:13:03.699Z,12.75
2018-06-27T04:14:04.230Z,12.812
2018-06-27T04:15:03.710Z,12.812
2018-06-27T04:16:04.003Z,12.812
2018-06-27T04:17:03.967Z,12.875
2018-06-27T04:18:03.373Z,12.937
2018-06-27T04:19:03.823Z,13
2018-06-27T04:20:04.252Z,13.125
2018-06-27T04:21:04.211Z,13.187
2018-06-27T04:23:03.893Z,13.562
2018-06-27T04:24:03.421Z,13.75
2018-06-27T04:25:04.422Z,14.062
2018-06-27T04:26:03.595Z,14.75
2018-06-27T04:27:04.122Z,14.75
2018-06-27T04:29:03.986Z,15.312
2018-06-27T04:30:03.594Z,16.062
2018-06-27T04:31:03.735Z,16.937
2018-06-27T04:32:04.225Z,17.75
2018-06-27T04:33:04.003Z,18.25
2018-06-27T04:34:03.498Z,18.062
2018-06-27T04:35:03.920Z,18.75
2018-06-27T04:36:03.428Z,19.312
